Waldenburg, Arkansas
Current Conditions -  °F | °C
As of 12:56 PM on Monday 20 Oct 2014 (Local Time) from KM19 Reporting Station
Overcast Overcast  
Wind Chill: 72°   Ceiling: 6000
Heat Index: 72°   Visibility: 10mi
Dew Point: 54°   Wind: 9mph
Humidity: 53%   Direction: 240°WSW
Pressure: 30.06"   Gusts: NA
Location:  35.57°N, 90.93°W
Report Text: KM19 201756Z AUTO 24008KT 10SM OVC060 22/12 A3006 RMK AO2 58014 T02220122 10227 20088 SLP178
Loading
Personal Weather Stations






























Interactive Weather Map
Tropical Storm Tracking
New forecast layout! Learn more

10-Day Weather Forecast

Advertisements
Track Severe Weather on mobile